Terminal Aerodrome Forecast
Issued by NWS Binghamton, NY

Home | Current Version | Previous Version | Text Only | Print | Product List | Glossary On
Versions: 1 2 3 4 5 6 7 8 9 10 11 12 13 14 15 16 17 18 19
000
FTUS41 KBGM 300142 AAB
TAFBGM
TAF AMD
KBGM 300142Z 3002/3024 16006KT P6SM -RA OVC040
     FM300600 VRB06KT P6SM OVC025
     FM301000 VRB06KT P6SM BKN040
     FM302100 VRB06KT P6SM BKN250=

USA.gov is the U.S. government's official web portal to all federal, state and local government web resources and services.